Burwell, NE

1:07 AM CDT on April 27, 2015 (GMT -0500)
The O'Neill Municipal-Baker | | Change Station
CLOSE
Current Station
Airport
Location: O'Neill,
Elevation: 2031 ft
Nearby Weather Stations

Elev 2031 ft 42.47 °N, 98.69 °W | Updated 12 minutes ago

Clear
Clear
46 °F
Feels Like 45 °F
N
4
Wind Variable Wind from West

Today
High -- | Low -- °F
--% Chance of Precip.
Yesterday
High -- | Low -- °F
Precip. -- in
6:38 AM 8:30 PM
Waxing Gibbous, 62% visible
Pressure 30.14 in
Visibility 10.0 miles
Clouds Clear
Windchill 45 °F
Dew Point 34 °F
Humidity 62%
Rainfall 0.00 in
Snow Depth Not available.
UV 0 out of 12
Pollen 10.50 out of 12
Air Quality Not available.
Flu Activity Local Activity
METAR KONL 270555Z AUTO 27003KT 10SM CLR 08/01 A3014

More Conditions Fewer Conditions

Pressure 30.14 in
Visibility 10.0 miles
Clouds Clear
Windchill 45 °F
Dew Point 34 °F
Humidity 62%
Rainfall 0.00 in
Snow Depth Not available.
UV 0 out of 12
Pollen 10.50 out of 12
Air Quality Not available.
Flu Activity Local Activity
METAR KONL 270555Z AUTO 27003KT 10SM CLR 08/01 A3014

More Conditions Fewer Conditions

10-Day Weather Forecast

Almanac

Astronomy

Apr. 27, 2015 Rise Set
Actual Time
Civil Twilight
Nautical Twilight
Astronomical Twilight
Moon
Length of Visible Light
Length of Day
Tomorrow will be .
, % of the Moon is Illuminated

Today's Extremes

State Highs State Lows

Community

WunderPhotos

Upload Photos

1,817,272 photos uploaded!

WunderBlogs® & News

Nearby

Air Quality

  Air Quality AQ Index Pollutant
Not available.

Snow Depth

Station Depth Elevation

Earthquake Activity

City Distance Mag. Time & Date
Minimum magnitude displayed is 2.5.

Coastal Water Temperatures

Place Temperature

Stations

Nearby Weather Stations

Station Location Temp. Windchill Dew Point Humidity Wind Precip. Elev Updated Type